sensor_id;sensor_type;location;lat;lon;timestamp;pressure;altitude;pressure_sealevel;temperature;humidity
65376;BME280;51976;47.332;9.404;2023-01-29T00:01:58;93391.09;;;18.90;29.70
65376;BME280;51976;47.332;9.404;2023-01-29T00:04:23;93392.69;;;18.91;29.93
65376;BME280;51976;47.332;9.404;2023-01-29T00:06:49;93395.75;;;18.89;29.73
65376;BME280;51976;47.332;9.404;2023-01-29T00:09:14;93396.56;;;18.90;29.82
65376;BME280;51976;47.332;9.404;2023-01-29T00:11:40;93398.34;;;18.86;29.87
65376;BME280;51976;47.332;9.404;2023-01-29T00:14:06;93393.81;;;18.90;29.78
65376;BME280;51976;47.332;9.404;2023-01-29T00:16:31;93402.19;;;18.85;29.97
65376;BME280;51976;47.332;9.404;2023-01-29T00:18:57;93398.34;;;18.86;29.79
65376;BME280;51976;47.332;9.404;2023-01-29T00:21:22;93391.09;;;18.90;29.84
65376;BME280;51976;47.332;9.404;2023-01-29T00:23:49;93396.56;;;18.90;29.95
65376;BME280;51976;47.332;9.404;2023-01-29T00:26:15;93398.34;;;18.86;29.81
65376;BME280;51976;47.332;9.404;2023-01-29T00:28:41;93394.81;;;18.85;29.76
65376;BME280;51976;47.332;9.404;2023-01-29T00:31:09;93385.81;;;18.85;29.88
65376;BME280;51976;47.332;9.404;2023-01-29T00:33:34;93383.56;;;18.87;29.79
65376;BME280;51976;47.332;9.404;2023-01-29T00:36:04;93380.34;;;18.85;29.74
65376;BME280;51976;47.332;9.404;2023-01-29T00:38:30;93377.63;;;18.85;29.83
65376;BME280;51976;47.332;9.404;2023-01-29T00:40:56;93373.28;;;18.84;29.69
65376;BME280;51976;47.332;9.404;2023-01-29T00:43:41;93370.88;;;18.82;29.75
65376;BME280;51976;47.332;9.404;2023-01-29T00:46:26;93377.13;;;18.83;30.00
65376;BME280;51976;47.332;9.404;2023-01-29T00:48:52;93381.78;;;18.82;29.71
65376;BME280;51976;47.332;9.404;2023-01-29T00:51:17;93389.66;;;18.84;29.71
65376;BME280;51976;47.332;9.404;2023-01-29T00:53:43;93396.72;;;18.85;29.71
65376;BME280;51976;47.332;9.404;2023-01-29T00:56:08;93385.81;;;18.85;29.76
65376;BME280;51976;47.332;9.404;2023-01-29T00:58:33;93389.19;;;18.82;29.78
65376;BME280;51976;47.332;9.404;2023-01-29T01:01:00;93394.97;;;18.80;29.75
65376;BME280;51976;47.332;9.404;2023-01-29T01:03:26;93406.53;;;18.86;29.77
65376;BME280;51976;47.332;9.404;2023-01-29T01:06:04;93409.91;;;18.83;29.83
65376;BME280;51976;47.332;9.404;2023-01-29T01:08:30;93402.03;;;18.81;29.74
65376;BME280;51976;47.332;9.404;2023-01-29T01:11:16;93397.38;;;18.82;29.66
65376;BME280;51976;47.332;9.404;2023-01-29T01:13:41;93402.84;;;18.82;29.72
65376;BME280;51976;47.332;9.404;2023-01-29T01:16:15;93404.63;;;18.86;29.82
65376;BME280;51976;47.332;9.404;2023-01-29T01:18:41;93412.16;;;18.81;29.68
65376;BME280;51976;47.332;9.404;2023-01-29T01:21:07;93403.16;;;18.80;29.99
65376;BME280;51976;47.332;9.404;2023-01-29T01:23:32;93402.84;;;18.82;29.59
65376;BME280;51976;47.332;9.404;2023-01-29T01:25:58;93416.97;;;18.84;29.62
65376;BME280;51976;47.332;9.404;2023-01-29T01:28:24;93419.72;;;18.84;29.58
65376;BME280;51976;47.332;9.404;2023-01-29T01:30:49;93426.28;;;18.83;29.75
65376;BME280;51976;47.332;9.404;2023-01-29T01:33:15;93430.16;;;18.82;29.80
65376;BME280;51976;47.332;9.404;2023-01-29T01:35:41;93437.22;;;18.83;29.50
65376;BME280;51976;47.332;9.404;2023-01-29T01:38:06;93438.84;;;18.84;29.83
65376;BME280;51976;47.332;9.404;2023-01-29T01:40:32;93435.63;;;18.82;29.78
65376;BME280;51976;47.332;9.404;2023-01-29T01:42:58;93439.16;;;18.82;29.72
65376;BME280;51976;47.332;9.404;2023-01-29T01:45:30;93440.75;;;18.83;29.68
65376;BME280;51976;47.332;9.404;2023-01-29T01:48:17;93437.22;;;18.83;29.76
65376;BME280;51976;47.332;9.404;2023-01-29T01:50:57;93446.22;;;18.83;29.67
65376;BME280;51976;47.332;9.404;2023-01-29T01:53:35;93440.44;;;18.85;29.67
65376;BME280;51976;47.332;9.404;2023-01-29T01:56:07;93440.28;;;18.81;29.85
65376;BME280;51976;47.332;9.404;2023-01-29T01:58:36;93448.31;;;18.86;29.66
65376;BME280;51976;47.332;9.404;2023-01-29T02:01:03;93436.25;;;18.79;29.75
65376;BME280;51976;47.332;9.404;2023-01-29T02:03:34;93441.06;;;18.82;29.65
65376;BME280;51976;47.332;9.404;2023-01-29T02:06:21;93447.34;;;18.82;29.91
65376;BME280;51976;47.332;9.404;2023-01-29T02:09:22;93453.13;;;18.81;29.68
65376;BME280;51976;47.332;9.404;2023-01-29T02:12:04;93454.25;;;18.80;29.63
65376;BME280;51976;47.332;9.404;2023-01-29T02:14:30;93446.06;;;18.80;29.60
65376;BME280;51976;47.332;9.404;2023-01-29T02:16:58;93453.13;;;18.81;29.61
65376;BME280;51976;47.332;9.404;2023-01-29T02:19:42;93445.56;;;18.78;29.68
65376;BME280;51976;47.332;9.404;2023-01-29T02:22:44;93449.41;;;18.77;29.57
65376;BME280;51976;47.332;9.404;2023-01-29T02:25:42;93452.63;;;18.79;29.50
65376;BME280;51976;47.332;9.404;2023-01-29T02:28:18;93451.81;;;18.78;29.64
65376;BME280;51976;47.332;9.404;2023-01-29T02:31:00;93460.50;;;18.80;29.60
65376;BME280;51976;47.332;9.404;2023-01-29T02:33:35;93471.25;;;18.77;29.69
65376;BME280;51976;47.332;9.404;2023-01-29T02:36:21;93453.75;;;18.78;29.68
65376;BME280;51976;47.332;9.404;2023-01-29T02:39:13;93456.47;;;18.78;29.66
65376;BME280;51976;47.332;9.404;2023-01-29T02:41:45;93448.28;;;18.78;29.64
65376;BME280;51976;47.332;9.404;2023-01-29T02:44:37;93442.84;;;18.78;29.76
65376;BME280;51976;47.332;9.404;2023-01-29T02:47:29;93440.09;;;18.78;29.68
65376;BME280;51976;47.332;9.404;2023-01-29T02:50:05;93440.09;;;18.78;29.75
65376;BME280;51976;47.332;9.404;2023-01-29T02:52:39;93440.09;;;18.78;29.66
65376;BME280;51976;47.332;9.404;2023-01-29T02:55:23;93447.97;;;18.79;29.56
65376;BME280;51976;47.332;9.404;2023-01-29T02:57:54;93452.94;;;18.77;29.49
65376;BME280;51976;47.332;9.404;2023-01-29T03:00:26;93449.91;;;18.79;29.68
65376;BME280;51976;47.332;9.404;2023-01-29T03:02:58;93443.63;;;18.78;29.80
65376;BME280;51976;47.332;9.404;2023-01-29T03:05:51;93425.47;;;18.74;29.55
65376;BME280;51976;47.332;9.404;2023-01-29T03:08:32;93431.41;;;18.76;29.58
65376;BME280;51976;47.332;9.404;2023-01-29T03:11:09;93431.91;;;18.78;29.41
65376;BME280;51976;47.332;9.404;2023-01-29T03:13:56;93424.03;;;18.76;29.64
65376;BME280;51976;47.332;9.404;2023-01-29T03:16:38;93425.94;;;18.76;29.66
65376;BME280;51976;47.332;9.404;2023-01-29T03:19:13;93420.50;;;18.76;29.78
65376;BME280;51976;47.332;9.404;2023-01-29T03:21:47;93413.75;;;18.82;29.65
65376;BME280;51976;47.332;9.404;2023-01-29T03:24:43;93407.50;;;18.81;29.47
65376;BME280;51976;47.332;9.404;2023-01-29T03:27:27;93401.84;;;18.78;29.81
65376;BME280;51976;47.332;9.404;2023-01-29T03:30:15;93388.69;;;18.80;29.67
65376;BME280;51976;47.332;9.404;2023-01-29T03:33:05;93388.19;;;18.78;29.66
65376;BME280;51976;47.332;9.404;2023-01-29T03:35:36;93399.13;;;18.78;29.38
65376;BME280;51976;47.332;9.404;2023-01-29T03:38:06;93393.97;;;18.76;29.43
65376;BME280;51976;47.332;9.404;2023-01-29T03:40:48;93403.47;;;18.79;29.51
65376;BME280;51976;47.332;9.404;2023-01-29T03:43:28;93409.25;;;18.77;29.75
65376;BME280;51976;47.332;9.404;2023-01-29T03:46:18;93408.44;;;18.77;29.49
65376;BME280;51976;47.332;9.404;2023-01-29T03:49:06;93404.59;;;18.78;29.50
65376;BME280;51976;47.332;9.404;2023-01-29T03:51:54;93406.19;;;18.79;29.63
65376;BME280;51976;47.332;9.404;2023-01-29T03:54:58;93403.47;;;18.79;29.42
65376;BME280;51976;47.332;9.404;2023-01-29T03:57:41;93401.06;;;18.77;29.68
65376;BME280;51976;47.332;9.404;2023-01-29T04:00:20;93404.09;;;18.76;29.60
65376;BME280;51976;47.332;9.404;2023-01-29T04:02:56;93403.31;;;18.75;29.75
65376;BME280;51976;47.332;9.404;2023-01-29T04:05:30;93414.41;;;18.79;29.41
65376;BME280;51976;47.332;9.404;2023-01-29T04:08:03;93414.41;;;18.79;29.63
65376;BME280;51976;47.332;9.404;2023-01-29T04:10:32;93419.69;;;18.75;29.41
65376;BME280;51976;47.332;9.404;2023-01-29T04:13:05;93411.81;;;18.74;29.82
65376;BME280;51976;47.332;9.404;2023-01-29T04:15:37;93401.06;;;18.77;29.49
65376;BME280;51976;47.332;9.404;2023-01-29T04:18:04;93394.31;;;18.75;29.60
65376;BME280;51976;47.332;9.404;2023-01-29T04:20:29;93383.38;;;18.75;29.79
65376;BME280;51976;47.332;9.404;2023-01-29T04:22:55;93389.97;;;18.74;29.82
65376;BME280;51976;47.332;9.404;2023-01-29T04:25:26;93383.88;;;18.77;29.58
65376;BME280;51976;47.332;9.404;2023-01-29T04:28:15;93392.06;;;18.77;29.56
65376;BME280;51976;47.332;9.404;2023-01-29T04:31:01;93378.22;;;18.73;29.50
65376;BME280;51976;47.332;9.404;2023-01-29T04:33:56;93385.00;;;18.76;29.56
65376;BME280;51976;47.332;9.404;2023-01-29T04:36:33;93376.78;;;18.76;29.46
65376;BME280;51976;47.332;9.404;2023-01-29T04:39:24;93378.41;;;18.77;29.49
65376;BME280;51976;47.332;9.404;2023-01-29T04:42:05;93375.19;;;18.75;29.62
65376;BME280;51976;47.332;9.404;2023-01-29T04:44:47;93375.50;;;18.73;29.47
65376;BME280;51976;47.332;9.404;2023-01-29T04:47:31;93372.13;;;18.76;29.68
65376;BME280;51976;47.332;9.404;2023-01-29T04:50:13;93361.03;;;18.73;29.51
65376;BME280;51976;47.332;9.404;2023-01-29T04:53:10;93367.31;;;18.73;29.56
65376;BME280;51976;47.332;9.404;2023-01-29T04:55:42;93364.25;;;18.75;29.36
65376;BME280;51976;47.332;9.404;2023-01-29T04:58:25;93369.22;;;18.73;29.24
65376;BME280;51976;47.332;9.404;2023-01-29T05:00:53;93375.81;;;18.72;29.46
65376;BME280;51976;47.332;9.404;2023-01-29T05:03:22;93370.34;;;18.72;29.58
65376;BME280;51976;47.332;9.404;2023-01-29T05:05:49;93375.66;;;18.77;29.46
65376;BME280;51976;47.332;9.404;2023-01-29T05:08:18;93379.03;;;18.74;29.30
65376;BME280;51976;47.332;9.404;2023-01-29T05:10:47;93392.69;;;18.74;29.39
65376;BME280;51976;47.332;9.404;2023-01-29T05:13:14;93395.75;;;18.72;29.69
65376;BME280;51976;47.332;9.404;2023-01-29T05:15:47;93400.88;;;18.74;29.45
65376;BME280;51976;47.332;9.404;2023-01-29T05:18:14;93396.88;;;18.71;29.56
65376;BME280;51976;47.332;9.404;2023-01-29T05:20:41;93397.03;;;18.75;29.39
65376;BME280;51976;47.332;9.404;2023-01-29T05:23:20;93407.47;;;18.73;29.48
65376;BME280;51976;47.332;9.404;2023-01-29T05:25:47;93407.97;;;18.75;29.56
65376;BME280;51976;47.332;9.404;2023-01-29T05:28:13;93406.03;;;18.75;29.42
65376;BME280;51976;47.332;9.404;2023-01-29T05:30:46;93409.09;;;18.74;29.64
65376;BME280;51976;47.332;9.404;2023-01-29T05:33:24;93407.97;;;18.75;29.38
65376;BME280;51976;47.332;9.404;2023-01-29T05:35:50;93411.19;;;18.77;29.41
65376;BME280;51976;47.332;9.404;2023-01-29T05:38:16;93408.75;;;18.75;29.45
65376;BME280;51976;47.332;9.404;2023-01-29T05:40:42;93408.44;;;18.77;29.33
65376;BME280;51976;47.332;9.404;2023-01-29T05:43:23;93414.41;;;18.79;29.55
65376;BME280;51976;47.332;9.404;2023-01-29T05:45:56;93418.25;;;18.78;29.57
65376;BME280;51976;47.332;9.404;2023-01-29T05:48:23;93417.44;;;18.77;29.40
65376;BME280;51976;47.332;9.404;2023-01-29T05:50:49;93429.19;;;18.78;29.38
65376;BME280;51976;47.332;9.404;2023-01-29T05:53:15;93433.34;;;18.75;29.47
65376;BME280;51976;47.332;9.404;2023-01-29T05:55:43;93443.31;;;18.80;29.39
65376;BME280;51976;47.332;9.404;2023-01-29T05:58:09;93452.63;;;18.79;29.43
65376;BME280;51976;47.332;9.404;2023-01-29T06:00:35;93456.16;;;18.79;29.43
65376;BME280;51976;47.332;9.404;2023-01-29T06:03:00;93459.72;;;18.80;29.28
65376;BME280;51976;47.332;9.404;2023-01-29T06:05:25;93464.38;;;18.79;29.43
65376;BME280;51976;47.332;9.404;2023-01-29T06:07:51;93464.53;;;18.83;29.47
65376;BME280;51976;47.332;9.404;2023-01-29T06:10:17;93479.63;;;18.89;29.05
65376;BME280;51976;47.332;9.404;2023-01-29T06:12:43;93477.88;;;18.93;29.45
65376;BME280;51976;47.332;9.404;2023-01-29T06:15:09;93487.38;;;18.96;28.95
65376;BME280;51976;47.332;9.404;2023-01-29T06:17:35;93499.44;;;19.03;29.28
65376;BME280;51976;47.332;9.404;2023-01-29T06:20:02;93509.56;;;19.03;29.17
65376;BME280;51976;47.332;9.404;2023-01-29T06:22:27;93497.19;;;19.05;28.95
65376;BME280;51976;47.332;9.404;2023-01-29T06:24:53;93502.66;;;19.05;29.10
65376;BME280;51976;47.332;9.404;2023-01-29T06:27:18;93504.44;;;19.10;29.25
65376;BME280;51976;47.332;9.404;2023-01-29T06:29:43;93504.13;;;19.11;29.34
65376;BME280;51976;47.332;9.404;2023-01-29T06:32:09;93506.88;;;19.11;29.25
65376;BME280;51976;47.332;9.404;2023-01-29T06:34:34;93502.34;;;19.15;28.92
65376;BME280;51976;47.332;9.404;2023-01-29T06:37:00;93499.59;;;19.15;28.96
65376;BME280;51976;47.332;9.404;2023-01-29T06:39:25;93496.56;;;19.17;28.83
65376;BME280;51976;47.332;9.404;2023-01-29T06:41:50;93499.78;;;19.19;28.97
65376;BME280;51976;47.332;9.404;2023-01-29T06:44:16;93498.34;;;19.21;29.03
65376;BME280;51976;47.332;9.404;2023-01-29T06:46:41;93489.03;;;19.22;28.94
65376;BME280;51976;47.332;9.404;2023-01-29T06:49:06;93496.09;;;19.23;28.84
65376;BME280;51976;47.332;9.404;2023-01-29T06:51:32;93498.69;;;19.28;29.08
65376;BME280;51976;47.332;9.404;2023-01-29T06:53:57;93496.25;;;19.27;29.22
65376;BME280;51976;47.332;9.404;2023-01-29T06:56:23;93495.47;;;19.26;29.10
65376;BME280;51976;47.332;9.404;2023-01-29T06:58:48;93488.88;;;19.27;28.70
65376;BME280;51976;47.332;9.404;2023-01-29T07:01:14;93488.88;;;19.27;29.13
65376;BME280;51976;47.332;9.404;2023-01-29T07:03:39;93493.22;;;19.28;29.04
65376;BME280;51976;47.332;9.404;2023-01-29T07:06:07;93492.91;;;19.30;28.95
65376;BME280;51976;47.332;9.404;2023-01-29T07:08:36;93494.19;;;19.33;28.88
65376;BME280;51976;47.332;9.404;2023-01-29T07:11:02;93495.00;;;19.33;28.79
65376;BME280;51976;47.332;9.404;2023-01-29T07:13:28;93486.78;;;19.33;28.91
65376;BME280;51976;47.332;9.404;2023-01-29T07:15:57;93487.59;;;19.34;29.06
65376;BME280;51976;47.332;9.404;2023-01-29T07:18:23;93490.50;;;19.37;28.82
65376;BME280;51976;47.332;9.404;2023-01-29T07:20:49;93485.84;;;19.38;28.63
65376;BME280;51976;47.332;9.404;2023-01-29T07:23:14;93482.28;;;19.37;28.76
65376;BME280;51976;47.332;9.404;2023-01-29T07:25:40;93474.91;;;19.38;28.85
65376;BME280;51976;47.332;9.404;2023-01-29T07:28:06;93471.34;;;19.37;28.86
65376;BME280;51976;47.332;9.404;2023-01-29T07:30:32;93471.03;;;19.39;28.88
65376;BME280;51976;47.332;9.404;2023-01-29T07:33:05;93473.78;;;19.39;28.86
65376;BME280;51976;47.332;9.404;2023-01-29T07:35:31;93464.94;;;19.42;28.88
65376;BME280;51976;47.332;9.404;2023-01-29T07:37:59;93466.50;;;19.43;28.80
65376;BME280;51976;47.332;9.404;2023-01-29T07:40:25;93470.41;;;19.42;29.03
65376;BME280;51976;47.332;9.404;2023-01-29T07:42:50;93465.69;;;19.42;29.09
65376;BME280;51976;47.332;9.404;2023-01-29T07:45:16;93463.13;;;19.46;28.77
65376;BME280;51976;47.332;9.404;2023-01-29T07:47:41;93463.94;;;19.46;28.82
65376;BME280;51976;47.332;9.404;2023-01-29T07:50:07;93462.00;;;19.47;29.11
65376;BME280;51976;47.332;9.404;2023-01-29T07:52:32;93469.09;;;19.48;28.83
65376;BME280;51976;47.332;9.404;2023-01-29T07:54:58;93463.63;;;19.48;29.24
65376;BME280;51976;47.332;9.404;2023-01-29T07:57:24;93461.19;;;19.46;28.85
65376;BME280;51976;47.332;9.404;2023-01-29T07:59:49;93467.47;;;19.47;28.87
65376;BME280;51976;47.332;9.404;2023-01-29T08:02:15;93466.84;;;19.50;28.89
65376;BME280;51976;47.332;9.404;2023-01-29T08:04:40;93458.16;;;19.48;28.77
65376;BME280;51976;47.332;9.404;2023-01-29T08:07:06;93461.38;;;19.50;29.07
65376;BME280;51976;47.332;9.404;2023-01-29T08:09:33;93458.16;;;19.48;28.74
65376;BME280;51976;47.332;9.404;2023-01-29T08:11:59;93458.16;;;19.48;28.98
65376;BME280;51976;47.332;9.404;2023-01-29T08:14:24;93460.28;;;19.51;29.21
65376;BME280;51976;47.332;9.404;2023-01-29T08:16:49;93466.53;;;19.51;29.00
65376;BME280;51976;47.332;9.404;2023-01-29T08:19:15;93461.56;;;19.53;29.00
65376;BME280;51976;47.332;9.404;2023-01-29T08:21:40;93454.16;;;19.54;29.03
65376;BME280;51976;47.332;9.404;2023-01-29T08:24:06;93459.31;;;19.55;29.07
65376;BME280;51976;47.332;9.404;2023-01-29T08:26:31;93454.66;;;19.56;29.04
65376;BME280;51976;47.332;9.404;2023-01-29T08:28:57;93460.13;;;19.56;28.96
65376;BME280;51976;47.332;9.404;2023-01-29T08:31:23;93452.88;;;19.60;29.02
65376;BME280;51976;47.332;9.404;2023-01-29T08:33:48;93454.00;;;19.59;28.83
65376;BME280;51976;47.332;9.404;2023-01-29T08:36:14;93449.81;;;19.62;28.89
65376;BME280;51976;47.332;9.404;2023-01-29T08:38:39;93447.41;;;19.60;29.00
65376;BME280;51976;47.332;9.404;2023-01-29T08:41:05;93450.94;;;19.60;28.99
65376;BME280;51976;47.332;9.404;2023-01-29T08:43:30;93452.56;;;19.62;29.02
65376;BME280;51976;47.332;9.404;2023-01-29T08:45:56;93453.69;;;19.60;29.18
65376;BME280;51976;47.332;9.404;2023-01-29T08:48:21;93456.91;;;19.63;28.94
65376;BME280;51976;47.332;9.404;2023-01-29T08:50:47;93453.84;;;19.64;28.59
65376;BME280;51976;47.332;9.404;2023-01-29T08:53:12;93455.78;;;19.64;28.87
65376;BME280;51976;47.332;9.404;2023-01-29T08:55:39;93452.72;;;19.65;29.12
65376;BME280;51976;47.332;9.404;2023-01-29T08:58:06;93446.94;;;19.67;28.83
65376;BME280;51976;47.332;9.404;2023-01-29T09:00:33;93452.72;;;19.65;29.13
65376;BME280;51976;47.332;9.404;2023-01-29T09:02:59;93459.00;;;19.66;29.01
65376;BME280;51976;47.332;9.404;2023-01-29T09:05:25;93466.38;;;19.65;28.90
65376;BME280;51976;47.332;9.404;2023-01-29T09:07:51;93465.25;;;19.66;28.97
65376;BME280;51976;47.332;9.404;2023-01-29T09:10:16;93482.81;;;19.65;29.23
65376;BME280;51976;47.332;9.404;2023-01-29T09:12:41;93477.00;;;19.67;29.13
65376;BME280;51976;47.332;9.404;2023-01-29T09:15:07;93482.16;;;19.68;28.90
65376;BME280;51976;47.332;9.404;2023-01-29T09:17:33;93485.69;;;19.69;28.98
65376;BME280;51976;47.332;9.404;2023-01-29T09:19:58;93486.81;;;19.68;29.06
65376;BME280;51976;47.332;9.404;2023-01-29T09:22:23;93497.75;;;19.68;28.82
65376;BME280;51976;47.332;9.404;2023-01-29T09:24:49;93497.44;;;19.69;29.20
65376;BME280;51976;47.332;9.404;2023-01-29T09:27:14;93505.16;;;19.67;29.36
65376;BME280;51976;47.332;9.404;2023-01-29T09:29:39;93517.72;;;19.68;28.95
65376;BME280;51976;47.332;9.404;2023-01-29T09:32:05;93519.31;;;19.69;29.36
65376;BME280;51976;47.332;9.404;2023-01-29T09:34:30;93524.81;;;19.69;29.29
65376;BME280;51976;47.332;9.404;2023-01-29T09:36:56;93524.44;;;19.71;29.05
65376;BME280;51976;47.332;9.404;2023-01-29T09:39:21;93532.00;;;19.74;29.16
65376;BME280;51976;47.332;9.404;2023-01-29T09:42:02;93529.13;;;19.70;29.17
65376;BME280;51976;47.332;9.404;2023-01-29T09:44:54;93530.09;;;19.74;29.11
65376;BME280;51976;47.332;9.404;2023-01-29T09:47:25;93531.03;;;19.70;29.20
65376;BME280;51976;47.332;9.404;2023-01-29T09:49:56;93529.91;;;19.71;29.30
65376;BME280;51976;47.332;9.404;2023-01-29T09:52:27;93532.66;;;19.71;29.05
65376;BME280;51976;47.332;9.404;2023-01-29T09:55:03;93529.28;;;19.74;29.24
65376;BME280;51976;47.332;9.404;2023-01-29T09:57:45;93532.34;;;19.72;29.33
65376;BME280;51976;47.332;9.404;2023-01-29T10:00:19;93526.53;;;19.74;29.32
65376;BME280;51976;47.332;9.404;2023-01-29T10:03:42;93533.94;;;19.73;29.28
65376;BME280;51976;47.332;9.404;2023-01-29T10:12:14;93522.69;;;19.75;29.39
65376;BME280;51976;47.332;9.404;2023-01-29T10:15:08;93523.50;;;19.75;29.27
65376;BME280;51976;47.332;9.404;2023-01-29T10:17:52;93520.75;;;19.75;29.19
65376;BME280;51976;47.332;9.404;2023-01-29T10:23:23;93528.31;;;19.78;29.35
65376;BME280;51976;47.332;9.404;2023-01-29T10:25:52;93527.84;;;19.76;29.36
65376;BME280;51976;47.332;9.404;2023-01-29T10:28:38;93534.59;;;19.79;29.30
65376;BME280;51976;47.332;9.404;2023-01-29T10:31:10;93539.75;;;19.80;29.16
65376;BME280;51976;47.332;9.404;2023-01-29T10:33:42;93541.03;;;19.83;29.43
65376;BME280;51976;47.332;9.404;2023-01-29T10:36:18;93539.09;;;19.83;29.36
65376;BME280;51976;47.332;9.404;2023-01-29T10:38:46;93536.69;;;19.82;29.06
65376;BME280;51976;47.332;9.404;2023-01-29T10:41:34;93536.84;;;19.85;29.07
65376;BME280;51976;47.332;9.404;2023-01-29T10:44:19;93527.03;;;19.84;29.49
65376;BME280;51976;47.332;9.404;2023-01-29T10:50:15;93525.09;;;19.85;29.31
65376;BME280;51976;47.332;9.404;2023-01-29T10:53:00;93531.88;;;19.87;29.35
65376;BME280;51976;47.332;9.404;2023-01-29T10:55:45;93522.03;;;19.86;29.45
65376;BME280;51976;47.332;9.404;2023-01-29T10:58:25;93517.88;;;19.89;29.55
65376;BME280;51976;47.332;9.404;2023-01-29T11:00:54;93523.00;;;19.90;29.30
65376;BME280;51976;47.332;9.404;2023-01-29T11:03:25;93523.81;;;19.91;29.13
65376;BME280;51976;47.332;9.404;2023-01-29T11:06:03;93524.94;;;19.90;29.12
65376;BME280;51976;47.332;9.404;2023-01-29T11:08:57;93519.16;;;19.91;29.48
65376;BME280;51976;47.332;9.404;2023-01-29T11:11:42;93524.31;;;19.93;29.39
65376;BME280;51976;47.332;9.404;2023-01-29T11:14:18;93525.91;;;19.94;29.31
65376;BME280;51976;47.332;9.404;2023-01-29T11:16:47;93522.69;;;19.92;29.57
65376;BME280;51976;47.332;9.404;2023-01-29T11:19:14;93526.88;;;19.89;29.54
65376;BME280;51976;47.332;9.404;2023-01-29T11:21:51;93520.28;;;19.90;29.36
65376;BME280;51976;47.332;9.404;2023-01-29T11:24:17;93525.25;;;19.88;29.50
65376;BME280;51976;47.332;9.404;2023-01-29T11:26:45;93513.69;;;19.91;29.48
65376;BME280;51976;47.332;9.404;2023-01-29T11:29:38;93508.03;;;19.88;29.44
65376;BME280;51976;47.332;9.404;2023-01-29T11:32:10;93505.78;;;19.90;29.34
65376;BME280;51976;47.332;9.404;2023-01-29T11:34:55;93499.19;;;19.91;29.43
65376;BME280;51976;47.332;9.404;2023-01-29T11:37:21;93506.59;;;19.90;29.23
65376;BME280;51976;47.332;9.404;2023-01-29T11:39:46;93500.31;;;19.90;29.19
65376;BME280;51976;47.332;9.404;2023-01-29T11:42:21;93494.69;;;19.86;29.50
65376;BME280;51976;47.332;9.404;2023-01-29T11:44:47;93495.66;;;19.90;29.49
65376;BME280;51976;47.332;9.404;2023-01-29T11:47:20;93490.50;;;19.89;29.56
65376;BME280;51976;47.332;9.404;2023-01-29T11:49:59;93487.75;;;19.89;29.62
65376;BME280;51976;47.332;9.404;2023-01-29T11:52:37;93479.56;;;19.89;29.44
65376;BME280;51976;47.332;9.404;2023-01-29T11:55:06;93478.75;;;19.88;29.47
65376;BME280;51976;47.332;9.404;2023-01-29T11:57:41;93476.16;;;19.92;29.32
65376;BME280;51976;47.332;9.404;2023-01-29T12:00:25;93472.63;;;19.91;29.61
65376;BME280;51976;47.332;9.404;2023-01-29T12:03:15;93475.03;;;19.93;29.44
65376;BME280;51976;47.332;9.404;2023-01-29T12:05:54;93472.97;;;19.90;29.77
65376;BME280;51976;47.332;9.404;2023-01-29T12:08:21;93471.50;;;19.92;29.30
65376;BME280;51976;47.332;9.404;2023-01-29T12:10:48;93466.69;;;19.89;29.63
65376;BME280;51976;47.332;9.404;2023-01-29T12:13:24;93465.56;;;19.90;29.49
65376;BME280;51976;47.332;9.404;2023-01-29T12:16:07;93466.69;;;19.89;29.46
65376;BME280;51976;47.332;9.404;2023-01-29T12:18:38;93464.44;;;19.91;29.63
65376;BME280;51976;47.332;9.404;2023-01-29T12:21:19;93468.28;;;19.90;29.37
65376;BME280;51976;47.332;9.404;2023-01-29T12:23:58;93456.22;;;19.91;29.65
65376;BME280;51976;47.332;9.404;2023-01-29T12:26:31;93440.59;;;19.92;29.24
65376;BME280;51976;47.332;9.404;2023-01-29T12:29:12;93431.59;;;19.91;29.54
65376;BME280;51976;47.332;9.404;2023-01-29T12:31:51;93435.44;;;19.90;29.71
65376;BME280;51976;47.332;9.404;2023-01-29T12:34:26;93433.53;;;19.91;29.30
65376;BME280;51976;47.332;9.404;2023-01-29T12:37:14;93430.47;;;19.92;29.49
65376;BME280;51976;47.332;9.404;2023-01-29T12:39:42;93423.69;;;19.90;29.62
65376;BME280;51976;47.332;9.404;2023-01-29T12:42:16;93419.50;;;19.92;29.61
65376;BME280;51976;47.332;9.404;2023-01-29T12:44:49;93424.34;;;19.96;29.75
65376;BME280;51976;47.332;9.404;2023-01-29T12:47:24;93426.13;;;19.91;29.49
65376;BME280;51976;47.332;9.404;2023-01-29T12:49:55;93426.59;;;19.93;29.54
65376;BME280;51976;47.332;9.404;2023-01-29T12:52:35;93431.25;;;19.93;29.60
65376;BME280;51976;47.332;9.404;2023-01-29T12:55:07;93433.53;;;19.91;29.56
65376;BME280;51976;47.332;9.404;2023-01-29T12:57:46;93424.50;;;19.90;29.78
65376;BME280;51976;47.332;9.404;2023-01-29T13:00:17;93421.44;;;19.92;29.64
65376;BME280;51976;47.332;9.404;2023-01-29T13:02:52;93428.84;;;19.91;29.82
65376;BME280;51976;47.332;9.404;2023-01-29T13:05:23;93441.25;;;19.89;29.70
65376;BME280;51976;47.332;9.404;2023-01-29T13:07:56;93442.84;;;19.90;29.57
65376;BME280;51976;47.332;9.404;2023-01-29T13:10:26;93450.41;;;19.93;29.49
65376;BME280;51976;47.332;9.404;2023-01-29T13:12:59;93459.28;;;19.90;29.62
65376;BME280;51976;47.332;9.404;2023-01-29T13:15:33;93465.56;;;19.90;29.93
65376;BME280;51976;47.332;9.404;2023-01-29T13:18:32;93456.22;;;19.91;29.45
65376;BME280;51976;47.332;9.404;2023-01-29T13:21:01;93458.16;;;19.91;29.58
65376;BME280;51976;47.332;9.404;2023-01-29T13:23:33;93446.06;;;19.92;29.69
65376;BME280;51976;47.332;9.404;2023-01-29T13:25:59;93443.34;;;19.92;29.75
65376;BME280;51976;47.332;9.404;2023-01-29T13:28:25;93444.13;;;19.92;29.53
65376;BME280;51976;47.332;9.404;2023-01-29T13:31:36;93430.78;;;19.91;29.77
65376;BME280;51976;47.332;9.404;2023-01-29T13:34:12;93420.31;;;19.93;29.57
65376;BME280;51976;47.332;9.404;2023-01-29T13:36:45;93417.91;;;19.91;29.78
65376;BME280;51976;47.332;9.404;2023-01-29T13:39:19;93408.91;;;19.91;29.50
65376;BME280;51976;47.332;9.404;2023-01-29T13:41:46;93416.63;;;19.89;29.58